Time;durP1;ratioP1;P1;durP2;ratioP2;P2;SDS_P1;SDS_P2;PMS_P1;PMS_P2;Temp;Humidity;BMP_temperature;BMP_pressure;BME280_temperature;BME280_humidity;BME280_pressure;Samples;Min_cycle;Max_cycle;Signal;HPM_P1;HPM_P2
2022/03/03 00:01:28;;;;;;;28.07;20.33;;;;;1.20;101380.00;;;;10440260;28;20241;-77
2022/03/03 00:06:30;;;;;;;37.67;22.43;;;;;1.30;101385.00;;;;11360112;22;20232;-79
2022/03/03 00:11:33;;;;;;;28.33;19.57;;;;;1.40;101377.00;;;;10498618;28;20205;-79
2022/03/03 00:16:35;;;;;;;31.30;19.30;;;;;1.40;101381.00;;;;10522443;28;20246;-80
2022/03/03 00:21:37;;;;;;;28.80;19.27;;;;;1.40;101371.00;;;;10532460;28;20196;-78
2022/03/03 00:26:40;;;;;;;28.63;19.83;;;;;1.20;101379.00;;;;10520497;28;20615;-80
2022/03/03 00:31:42;;;;;;;32.13;20.37;;;;;1.10;101386.00;;;;10511998;28;20203;-79
2022/03/03 00:36:44;;;;;;;30.97;18.93;;;;;1.00;101383.00;;;;10524382;28;20251;-79
2022/03/03 00:41:46;;;;;;;35.73;20.03;;;;;0.90;101388.00;;;;10482525;28;20207;-79
2022/03/03 00:46:47;;;;;;;34.93;21.20;;;;;0.80;101379.00;;;;10534227;27;20226;-79
2022/03/03 00:51:50;;;;;;;31.40;18.90;;;;;0.70;101386.00;;;;10538149;27;21614;-80
2022/03/03 00:56:52;;;;;;;32.77;19.77;;;;;0.60;101373.00;;;;10535581;28;20203;-79
2022/03/03 01:01:54;;;;;;;39.10;20.00;;;;;0.50;101371.00;;;;10536402;28;20196;-79
2022/03/03 01:06:56;;;;;;;32.90;20.07;;;;;0.40;101368.00;;;;10522128;28;20224;-79
2022/03/03 01:11:58;;;;;;;30.70;19.97;;;;;0.40;101358.00;;;;10479556;28;20362;-80
2022/03/03 01:17:00;;;;;;;35.97;19.97;;;;;0.40;101359.00;;;;10467652;28;20241;-79
2022/03/03 01:22:02;;;;;;;32.43;19.47;;;;;0.60;101357.00;;;;10452779;28;20284;-79
2022/03/03 01:27:04;;;;;;;34.87;20.33;;;;;0.50;101363.00;;;;10499396;28;20216;-79
2022/03/03 01:32:07;;;;;;;38.27;21.67;;;;;0.50;101346.00;;;;10525125;28;20204;-78
2022/03/03 01:37:09;;;;;;;33.87;21.27;;;;;0.40;101346.00;;;;10493185;28;20231;-79
2022/03/03 01:42:14;;;;;;;37.30;21.80;;;;;0.40;101342.00;;;;10510566;28;20196;-79
2022/03/03 01:47:21;;;;;;;37.20;22.90;;;;;0.30;101323.00;;;;10509367;28;20189;-79
2022/03/03 01:52:23;;;;;;;34.97;22.50;;;;;0.30;101312.00;;;;10493629;28;20211;-78
2022/03/03 01:57:26;;;;;;;44.47;25.40;;;;;0.30;101311.00;;;;10493200;28;20577;-80
2022/03/03 02:02:27;;;;;;;36.90;23.10;;;;;0.20;101316.00;;;;10466179;28;20240;-78
2022/03/03 02:07:30;;;;;;;37.07;21.67;;;;;0.20;101315.00;;;;10508201;28;20634;-79
2022/03/03 02:12:32;;;;;;;35.87;21.73;;;;;0.20;101314.00;;;;10508325;28;20197;-79
2022/03/03 02:17:34;;;;;;;36.73;21.50;;;;;0.20;101304.00;;;;10507282;28;20269;-79
2022/03/03 02:22:36;;;;;;;31.33;19.53;;;;;0.30;101303.00;;;;10524269;28;20215;-79
2022/03/03 02:27:39;;;;;;;37.50;20.70;;;;;0.40;101291.00;;;;10489093;28;20223;-78
2022/03/03 02:32:42;;;;;;;35.20;20.27;;;;;0.70;101289.00;;;;10490296;28;20193;-79
2022/03/03 02:37:45;;;;;;;30.50;19.47;;;;;0.80;101283.00;;;;10478793;28;20280;-80
2022/03/03 02:42:52;;;;;;;32.77;18.77;;;;;0.80;101276.00;;;;10465286;28;20205;-78
2022/03/03 02:47:54;;;;;;;28.53;18.83;;;;;0.80;101277.00;;;;10498829;28;20193;-79
2022/03/03 02:52:58;;;;;;;29.80;17.73;;;;;0.80;101281.00;;;;10472073;28;20224;-80
2022/03/03 02:58:00;;;;;;;29.60;18.10;;;;;0.80;101267.00;;;;10471950;28;20193;-79
2022/03/03 03:03:02;;;;;;;29.70;17.33;;;;;0.70;101265.00;;;;10489550;28;20200;-79
2022/03/03 03:08:04;;;;;;;27.80;17.37;;;;;0.70;101258.00;;;;10490089;28;20212;-79
2022/03/03 03:13:07;;;;;;;25.90;17.57;;;;;0.70;101263.00;;;;10491334;28;21011;-79
2022/03/03 03:18:11;;;;;;;30.33;18.70;;;;;0.60;101248.00;;;;10479819;28;20605;-80
2022/03/03 03:23:16;;;;;;;30.43;18.60;;;;;0.50;101242.00;;;;10452056;28;20197;-79
2022/03/03 03:28:19;;;;;;;26.83;18.10;;;;;0.60;101245.00;;;;10490156;28;20196;-78
2022/03/03 03:33:21;;;;;;;28.37;17.33;;;;;0.50;101240.00;;;;10489192;28;20208;-79
2022/03/03 03:38:23;;;;;;;27.73;17.60;;;;;0.50;101225.00;;;;10479107;28;20821;-80
2022/03/03 03:43:25;;;;;;;29.03;16.50;;;;;0.60;101233.00;;;;10468546;28;20209;-79
2022/03/03 03:48:27;;;;;;;29.53;17.87;;;;;0.50;101234.00;;;;10521107;28;20235;-78
2022/03/03 03:53:29;;;;;;;28.17;16.70;;;;;0.50;101235.00;;;;10487559;28;20308;-79
2022/03/03 03:58:31;;;;;;;29.80;17.03;;;;;0.40;101230.00;;;;10487136;28;20193;-79
2022/03/03 04:03:33;;;;;;;30.47;16.67;;;;;0.30;101232.00;;;;10470898;28;20201;-79
2022/03/03 04:08:36;;;;;;;27.43;16.80;;;;;0.20;101239.00;;;;10485243;28;20224;-78
2022/03/03 04:13:38;;;;;;;27.43;16.73;;;;;0.10;101238.00;;;;10486801;28;20205;-79
2022/03/03 04:18:41;;;;;;;27.33;15.93;;;;;0.00;101243.00;;;;10505059;28;20201;-79
2022/03/03 04:23:43;;;;;;;24.63;15.80;;;;;-0.10;101236.00;;;;10489641;28;20193;-79
2022/03/03 04:28:45;;;;;;;25.27;15.63;;;;;-0.20;101253.00;;;;10481457;28;20276;-79
2022/03/03 04:33:47;;;;;;;29.97;16.00;;;;;-0.20;101245.00;;;;10481026;28;20212;-79
2022/03/03 04:38:50;;;;;;;25.43;15.53;;;;;-0.30;101235.00;;;;10494024;28;20223;-78
2022/03/03 04:43:52;;;;;;;27.47;17.33;;;;;-0.40;101231.00;;;;10488605;28;20645;-80
2022/03/03 04:48:59;;;;;;;30.83;17.57;;;;;-0.40;101223.00;;;;10464994;28;20197;-79
2022/03/03 04:54:02;;;;;;;30.67;19.00;;;;;-0.40;101225.00;;;;10518283;28;20299;-79
2022/03/03 04:59:05;;;;;;;31.13;18.83;;;;;-0.40;101232.00;;;;10502998;28;20197;-79
2022/03/03 05:04:07;;;;;;;31.07;19.17;;;;;-0.50;101227.00;;;;10492212;28;20204;-79
2022/03/03 05:09:10;;;;;;;32.97;17.77;;;;;-0.60;101230.00;;;;10490805;28;20193;-80
2022/03/03 05:14:12;;;;;;;31.30;19.57;;;;;-0.60;101224.00;;;;10494032;28;20232;-80
2022/03/03 05:19:14;;;;;;;28.73;17.30;;;;;-0.70;101231.00;;;;10452160;28;20205;-80
2022/03/03 05:24:16;;;;;;;25.60;16.90;;;;;-0.80;101226.00;;;;10493942;28;20199;-80
2022/03/03 05:29:18;;;;;;;31.03;18.70;;;;;-0.80;101231.00;;;;10489916;28;20204;-80
2022/03/03 05:34:20;;;;;;;34.63;19.53;;;;;-0.90;101240.00;;;;10475194;28;20213;-80
2022/03/03 05:39:23;;;;;;;29.43;18.57;;;;;-0.90;101222.00;;;;10494615;28;20513;-80
2022/03/03 05:44:28;;;;;;;32.57;18.13;;;;;-1.00;101239.00;;;;10511715;28;20200;-79
2022/03/03 05:49:30;;;;;;;28.67;17.90;;;;;-1.10;101233.00;;;;10500605;28;20229;-80
2022/03/03 05:54:32;;;;;;;29.53;17.57;;;;;-1.10;101230.00;;;;10459958;28;20221;-79
2022/03/03 05:59:35;;;;;;;33.00;18.97;;;;;-1.20;101224.00;;;;10509597;28;20193;-80
2022/03/03 06:04:39;;;;;;;36.10;20.43;;;;;-1.20;101227.00;;;;10511017;28;20219;-79
2022/03/03 06:09:42;;;;;;;32.57;19.33;;;;;-1.20;101221.00;;;;10494355;28;20196;-80
2022/03/03 06:14:52;;;;;;;30.40;19.10;;;;;-1.20;101215.00;;;;10493742;28;20510;-80
2022/03/03 06:19:54;;;;;;;31.97;20.07;;;;;-1.20;101215.00;;;;10509592;28;20192;-79
2022/03/03 06:24:56;;;;;;;31.30;18.80;;;;;-1.20;101215.00;;;;10510555;28;20200;-79
2022/03/03 06:30:00;;;;;;;37.17;19.07;;;;;-1.20;101215.00;;;;10493105;28;20201;-80
2022/03/03 06:35:04;;;;;;;35.13;20.17;;;;;-1.20;101223.00;;;;10509014;28;20741;-79
2022/03/03 06:40:06;;;;;;;31.40;19.43;;;;;-1.10;101215.00;;;;10492557;28;20193;-79
2022/03/03 06:45:09;;;;;;;33.27;19.07;;;;;-1.00;101223.00;;;;10475372;28;20206;-80
2022/03/03 06:50:11;;;;;;;36.67;21.80;;;;;-0.90;101229.00;;;;10491378;28;20197;-80
2022/03/03 06:55:25;;;;;;;31.93;19.90;;;;;-0.70;101229.00;;;;10489470;28;20236;-80
2022/03/03 07:00:33;;;;;;;35.80;20.87;;;;;-0.40;101239.00;;;;10484280;28;20216;-80
2022/03/03 07:05:36;;;;;;;39.47;22.70;;;;;0.10;101233.00;;;;10491177;28;20791;-80
2022/03/03 07:10:38;;;;;;;33.97;20.43;;;;;0.40;101241.00;;;;10506187;28;20193;-78
2022/03/03 07:15:52;;;;;;;31.17;20.00;;;;;0.70;101236.00;;;;10488868;28;20220;-80
2022/03/03 07:21:16;;;;;;;33.20;20.17;;;;;1.00;101229.00;;;;10487370;28;20204;-80
2022/03/03 07:26:20;;;;;;;32.30;19.50;;;;;1.30;101228.00;;;;10471619;28;20918;-79
2022/03/03 07:31:26;;;;;;;31.07;19.83;;;;;1.70;101221.00;;;;10504451;28;20209;-79
2022/03/03 07:36:32;;;;;;;37.43;19.90;;;;;2.20;101224.00;;;;10491205;28;20224;-79
2022/03/03 07:41:41;;;;;;;28.57;18.53;;;;;2.70;101228.00;;;;10471441;28;20208;-79
2022/03/03 07:46:44;;;;;;;25.50;17.80;;;;;3.10;101245.00;;;;10470872;28;20211;-78
2022/03/03 07:51:45;;;;;;;28.93;17.60;;;;;3.50;101242.00;;;;10469638;28;20205;-79
2022/03/03 07:56:55;;;;;;;25.67;17.03;;;;;3.80;101240.00;;;;10477746;28;20686;-78
2022/03/03 08:01:59;;;;;;;26.97;17.50;;;;;4.20;101249.00;;;;10485878;28;20197;-79
2022/03/03 08:07:07;;;;;;;22.90;15.87;;;;;4.60;101239.00;;;;10485481;28;20220;-79
2022/03/03 08:12:10;;;;;;;28.63;16.80;;;;;4.90;101240.00;;;;10457421;28;20205;-79
2022/03/03 08:17:15;;;;;;;27.00;16.60;;;;;5.30;101243.00;;;;10492309;28;20326;-79
2022/03/03 08:22:18;;;;;;;25.77;17.80;;;;;5.70;101242.00;;;;10478282;28;20288;-80
2022/03/03 08:27:22;;;;;;;23.13;16.37;;;;;6.00;101232.00;;;;10469447;28;20723;-80
2022/03/03 08:32:40;;;;;;;24.67;16.37;;;;;6.50;101234.00;;;;10507430;28;20203;-80
2022/03/03 08:38:04;;;;;;;22.87;16.37;;;;;7.00;101231.00;;;;10494727;28;21297;-80
2022/03/03 08:43:06;;;;;;;20.93;15.53;;;;;7.50;101236.00;;;;10478829;28;20227;-79
2022/03/03 08:48:14;;;;;;;22.33;16.10;;;;;7.80;101230.00;;;;10482432;28;20926;-79
2022/03/03 08:53:16;;;;;;;21.40;15.43;;;;;8.20;101236.00;;;;10507615;28;20220;-79
2022/03/03 08:58:18;;;;;;;21.47;16.60;;;;;8.60;101227.00;;;;10504068;28;20348;-80
2022/03/03 09:03:23;;;;;;;22.07;15.70;;;;;9.10;101229.00;;;;10502642;27;20250;-78
2022/03/03 09:08:25;;;;;;;19.50;13.60;;;;;9.50;101226.00;;;;10490494;28;20305;-78
2022/03/03 09:13:27;;;;;;;20.23;14.37;;;;;9.90;101232.00;;;;10486627;28;20235;-78
2022/03/03 09:18:29;;;;;;;20.00;14.93;;;;;10.10;101215.00;;;;10485680;28;20825;-78
2022/03/03 09:23:31;;;;;;;19.60;14.17;;;;;10.40;101229.00;;;;10519267;28;20224;-78
2022/03/03 09:28:33;;;;;;;20.40;14.67;;;;;10.80;101214.00;;;;10492276;28;20212;-79
2022/03/03 09:33:35;;;;;;;20.03;13.57;;;;;11.20;101217.00;;;;10522216;28;20206;-79
2022/03/03 09:38:37;;;;;;;20.03;13.77;;;;;11.50;101219.00;;;;10496474;28;20212;-78
2022/03/03 09:43:44;;;;;;;18.00;14.10;;;;;11.70;101219.00;;;;10504342;28;20859;-78
2022/03/03 09:48:46;;;;;;;25.73;14.87;;;;;11.80;101215.00;;;;10484892;28;20322;-77
2022/03/03 09:53:49;;;;;;;18.97;14.60;;;;;12.20;101208.00;;;;10478357;28;20194;-78
2022/03/03 09:58:51;;;;;;;19.87;15.37;;;;;12.30;101218.00;;;;10510046;28;20258;-77
2022/03/03 10:03:54;;;;;;;20.93;14.77;;;;;12.30;101225.00;;;;10465496;28;20208;-78
2022/03/03 10:08:56;;;;;;;22.03;15.53;;;;;12.70;101217.00;;;;10477124;28;20201;-78
2022/03/03 10:13:58;;;;;;;22.07;15.37;;;;;12.90;101221.00;;;;10520465;28;20826;-78
2022/03/03 10:19:03;;;;;;;22.23;15.90;;;;;13.10;101228.00;;;;10513402;28;20222;-78
2022/03/03 10:24:21;;;;;;;22.87;15.40;;;;;13.40;101228.00;;;;10525681;28;20224;-78
2022/03/03 10:29:23;;;;;;;21.30;15.53;;;;;13.80;101230.00;;;;10519716;28;20196;-78
2022/03/03 10:34:27;;;;;;;21.00;16.43;;;;;14.10;101234.00;;;;10506432;28;20304;-77
2022/03/03 10:39:48;;;;;;;23.60;16.53;;;;;14.20;101237.00;;;;10482147;28;20193;-79
2022/03/03 10:45:04;;;;;;;21.30;16.13;;;;;14.50;101228.00;;;;10523110;28;20196;-78
2022/03/03 10:50:07;;;;;;;25.50;16.80;;;;;14.90;101231.00;;;;10523058;28;20252;-77
2022/03/03 10:55:14;;;;;;;24.47;17.70;;;;;15.00;101236.00;;;;10505598;28;20208;-78
2022/03/03 11:00:23;;;;;;;26.80;17.80;;;;;14.90;101234.00;;;;10491953;28;20208;-78
2022/03/03 11:05:28;;;;;;;22.33;16.60;;;;;15.10;101232.00;;;;10481300;27;20240;-78
2022/03/03 11:10:30;;;;;;;26.40;17.27;;;;;15.30;101232.00;;;;10508935;28;20192;-78
2022/03/03 11:15:33;;;;;;;26.27;17.87;;;;;15.20;101227.00;;;;10490679;28;20217;-79
2022/03/03 11:20:35;;;;;;;23.37;17.80;;;;;15.50;101228.00;;;;10506095;28;20197;-78
2022/03/03 11:25:38;;;;;;;26.07;18.13;;;;;15.50;101226.00;;;;10520895;28;20238;-78
2022/03/03 11:30:45;;;;;;;26.20;17.97;;;;;15.50;101223.00;;;;10478671;28;20215;-79
2022/03/03 11:35:59;;;;;;;25.73;17.30;;;;;15.70;101220.00;;;;10491709;28;20294;-79
2022/03/03 11:41:04;;;;;;;22.20;16.53;;;;;15.70;101202.00;;;;10505337;28;20220;-78
2022/03/03 11:46:05;;;;;;;21.80;17.37;;;;;15.80;101192.00;;;;10520383;28;20189;-79
2022/03/03 11:51:34;;;;;;;26.23;18.73;;;;;16.10;101192.00;;;;10519910;28;20714;-78
2022/03/03 11:57:06;;;;;;;21.63;17.40;;;;;15.90;101185.00;;;;10481187;28;20216;-78
2022/03/03 12:02:09;;;;;;;23.63;16.95;;;;;16.00;101193.00;;;;10501727;28;20197;-79
2022/03/03 12:07:30;;;;;;;23.90;16.97;;;;;16.00;101200.00;;;;10496191;28;20228;-78
2022/03/03 12:12:32;;;;;;;23.60;19.10;;;;;15.90;101196.00;;;;10520336;28;20196;-78
2022/03/03 12:17:46;;;;;;;24.30;17.20;;;;;16.10;101195.00;;;;10490063;28;20228;-78
2022/03/03 12:23:04;;;;;;;27.17;19.23;;;;;16.40;101191.00;;;;10496742;28;20192;-78
2022/03/03 12:28:26;;;;;;;28.73;17.10;;;;;16.40;101187.00;;;;10473276;28;20831;-78
2022/03/03 12:33:30;;;;;;;23.02;18.30;;;;;16.70;101182.00;;;;10503750;28;20548;-78
2022/03/03 12:38:35;;;;;;;24.25;18.92;;;;;16.80;101187.00;;;;10501000;28;20209;-77
2022/03/03 12:43:40;;;;;;;26.27;18.10;;;;;16.90;101173.00;;;;10486114;28;20460;-78
2022/03/03 12:48:46;;;;;;;28.67;18.42;;;;;16.90;101165.00;;;;10518294;28;20205;-78
2022/03/03 12:53:49;;;;;;;20.98;17.83;;;;;16.90;101162.00;;;;10478211;28;20196;-78
2022/03/03 12:58:51;;;;;;;24.55;18.58;;;;;16.80;101155.00;;;;10525630;28;20213;-79
2022/03/03 13:03:53;;;;;;;25.00;17.20;;;;;16.80;101152.00;;;;10492909;28;20196;-79
2022/03/03 13:09:01;;;;;;;23.13;17.50;;;;;17.20;101143.00;;;;10525641;28;20689;-78
2022/03/03 13:14:06;;;;;;;27.30;18.48;;;;;17.30;101151.00;;;;10466906;28;20197;-79
2022/03/03 13:19:11;;;;;;;27.77;18.05;;;;;17.50;101129.00;;;;10469448;28;20235;-78
2022/03/03 13:24:24;;;;;;;23.75;17.67;;;;;17.90;101131.00;;;;10451751;28;20205;-78
2022/03/03 13:29:27;;;;;;;24.73;18.73;;;;;18.00;101127.00;;;;10486811;28;20254;-79
2022/03/03 13:34:30;;;;;;;26.00;18.10;;;;;17.90;101125.00;;;;10518523;27;20216;-78
2022/03/03 13:39:36;;;;;;;26.85;18.85;;;;;17.50;101131.00;;;;10509555;28;20260;-78
2022/03/03 13:44:55;;;;;;;26.35;18.67;;;;;17.50;101125.00;;;;10508933;28;20205;-79
2022/03/03 13:49:58;;;;;;;24.88;18.50;;;;;17.50;101119.00;;;;10446703;28;20204;-79
2022/03/03 13:55:07;;;;;;;24.17;18.38;;;;;18.40;101114.00;;;;10484121;28;20744;-79
2022/03/03 14:00:12;;;;;;;26.83;18.42;;;;;19.60;101116.00;;;;10487791;28;20196;-79
2022/03/03 14:05:14;;;;;;;27.17;18.25;;;;;19.80;101079.00;;;;10484769;28;20277;-78
2022/03/03 14:10:16;;;;;;;24.05;18.55;;;;;20.80;101076.00;;;;10509676;28;20193;-79
2022/03/03 14:15:26;;;;;;;28.48;18.60;;;;;21.20;101072.00;;;;10494064;28;20240;-79
2022/03/03 14:20:28;;;;;;;21.13;17.63;;;;;21.20;101062.00;;;;10507477;28;20295;-78
2022/03/03 14:25:30;;;;;;;24.15;17.98;;;;;19.40;101110.00;;;;10491391;28;20924;-79
2022/03/03 14:30:32;;;;;;;30.55;18.27;;;;;18.50;101106.00;;;;10475947;28;20225;-77
2022/03/03 14:35:34;;;;;;;24.80;17.25;;;;;17.90;101094.00;;;;10492071;28;20253;-78
2022/03/03 14:40:40;;;;;;;26.77;17.70;;;;;18.10;101053.00;;;;10492600;28;20216;-77
2022/03/03 14:45:45;;;;;;;25.57;18.03;;;;;19.30;101031.00;;;;10508976;28;20200;-78
2022/03/03 14:50:48;;;;;;;23.45;17.50;;;;;20.40;101014.00;;;;10497126;28;20776;-79
2022/03/03 14:55:52;;;;;;;26.10;18.30;;;;;22.70;100973.00;;;;10529524;28;20724;-78
2022/03/03 15:01:00;;;;;;;25.98;17.95;;;;;22.60;101002.00;;;;10511955;28;20623;-78
2022/03/03 15:06:06;;;;;;;25.98;17.95;;;;;21.30;101026.00;;;;10532353;27;20681;-80
2022/03/03 15:11:09;;;;;;;28.73;18.25;;;;;21.30;101024.00;;;;10532665;27;20192;-78
2022/03/03 15:16:11;;;;;;;31.23;18.10;;;;;22.20;100970.00;;;;10513312;28;20213;-79
2022/03/03 15:21:13;;;;;;;25.88;17.48;;;;;19.30;101062.00;;;;10509790;28;20224;-78
2022/03/03 15:26:15;;;;;;;27.77;18.63;;;;;19.60;101033.00;;;;10483301;28;20197;-79
2022/03/03 15:31:17;;;;;;;27.02;18.67;;;;;19.60;101035.00;;;;10550443;28;20189;-78
2022/03/03 15:41:40;;;;;;;27.40;18.45;;;;;16.80;101079.00;;;;10522710;28;20658;-78
2022/03/03 15:46:47;;;;;;;25.40;17.83;;;;;15.60;101078.00;;;;10509574;28;20201;-78
2022/03/03 15:51:51;;;;;;;28.80;18.53;;;;;15.10;101071.00;;;;10506537;28;20212;-78
2022/03/03 15:56:54;;;;;;;26.93;18.80;;;;;14.80;101081.00;;;;10472870;28;20312;-79
2022/03/03 16:01:56;;;;;;;31.50;18.17;;;;;14.60;101082.00;;;;10505544;28;20193;-77
2022/03/03 16:06:58;;;;;;;27.23;17.30;;;;;14.00;101089.00;;;;10549925;28;20283;-77
2022/03/03 16:12:00;;;;;;;27.87;18.87;;;;;13.50;101094.00;;;;10511076;28;20254;-78
2022/03/03 16:17:02;;;;;;;23.90;16.53;;;;;13.20;101094.00;;;;10507037;28;20219;-78
2022/03/03 16:22:04;;;;;;;28.90;17.23;;;;;13.00;101095.00;;;;10489620;28;20338;-79
2022/03/03 16:27:06;;;;;;;27.80;17.17;;;;;12.70;101102.00;;;;10489741;28;20200;-79
2022/03/03 16:32:17;;;;;;;28.43;16.27;;;;;12.60;101108.00;;;;10522968;28;20196;-79
2022/03/03 16:37:26;;;;;;;27.50;17.30;;;;;12.40;101107.00;;;;10506770;28;20686;-80
2022/03/03 16:42:28;;;;;;;28.23;16.17;;;;;12.10;101108.00;;;;10488693;28;20193;-79
2022/03/03 16:47:30;;;;;;;25.90;15.47;;;;;11.90;101114.00;;;;10520914;28;20200;-79
2022/03/03 16:52:32;;;;;;;23.50;16.03;;;;;11.70;101114.00;;;;10505876;28;20809;-78
2022/03/03 16:57:35;;;;;;;26.73;15.97;;;;;11.40;101112.00;;;;10486596;28;20224;-79
2022/03/03 17:02:56;;;;;;;21.70;15.30;;;;;11.10;101115.00;;;;10472054;28;20200;-79
2022/03/03 17:07:59;;;;;;;24.70;17.37;;;;;10.90;101115.00;;;;10542225;28;20255;-79
2022/03/03 17:13:01;;;;;;;27.10;16.50;;;;;10.60;101125.00;;;;10504686;28;20201;-77
2022/03/03 17:18:03;;;;;;;21.63;16.13;;;;;10.40;101130.00;;;;10512278;28;20739;-78
2022/03/03 17:23:19;;;;;;;21.30;15.50;;;;;10.20;101134.00;;;;10478600;28;20607;-78
2022/03/03 17:28:21;;;;;;;22.37;16.57;;;;;10.00;101145.00;;;;10498278;28;20720;-78
2022/03/03 17:33:23;;;;;;;24.57;16.47;;;;;9.80;101144.00;;;;10515812;28;20245;-79
2022/03/03 17:38:28;;;;;;;21.17;15.03;;;;;9.60;101144.00;;;;10550396;27;20686;-80
2022/03/03 17:43:30;;;;;;;21.30;15.27;;;;;9.40;101153.00;;;;10506637;28;20273;-80
2022/03/03 17:48:33;;;;;;;24.33;15.00;;;;;9.10;101149.00;;;;10495004;28;20269;-78
2022/03/03 17:53:35;;;;;;;24.47;15.33;;;;;8.90;101149.00;;;;10524436;28;20200;-78
2022/03/03 17:58:37;;;;;;;22.07;15.80;;;;;8.70;101157.00;;;;10506583;28;20225;-78
2022/03/03 18:03:40;;;;;;;21.73;14.87;;;;;8.40;101164.00;;;;10505606;28;20299;-78
2022/03/03 18:08:42;;;;;;;21.40;15.83;;;;;8.20;101172.00;;;;10518870;28;20220;-78
2022/03/03 18:13:48;;;;;;;19.77;14.80;;;;;8.00;101165.00;;;;10488230;28;20223;-78
2022/03/03 18:18:50;;;;;;;25.57;15.67;;;;;8.00;101171.00;;;;10489544;28;20695;-78
2022/03/03 18:23:52;;;;;;;19.07;13.93;;;;;7.90;101169.00;;;;10502930;28;20250;-78
2022/03/03 18:28:54;;;;;;;21.47;14.13;;;;;8.00;101182.00;;;;10487429;28;20198;-80
2022/03/03 18:33:56;;;;;;;25.03;14.83;;;;;7.90;101174.00;;;;10491481;28;20647;-79
2022/03/03 18:38:58;;;;;;;25.33;16.20;;;;;7.70;101170.00;;;;10505257;28;20224;-78
2022/03/03 18:44:03;;;;;;;21.93;15.00;;;;;7.50;101178.00;;;;10507615;28;20204;-78
2022/03/03 18:49:06;;;;;;;21.83;14.50;;;;;7.40;101175.00;;;;10475800;28;20208;-80
2022/03/03 18:54:07;;;;;;;21.23;14.20;;;;;7.40;101168.00;;;;10504254;28;20201;-80
2022/03/03 18:59:09;;;;;;;26.13;16.07;;;;;7.30;101171.00;;;;10491819;28;20224;-80
2022/03/03 19:04:11;;;;;;;20.87;14.97;;;;;7.10;101164.00;;;;10490636;28;20204;-80
2022/03/03 19:09:13;;;;;;;25.40;16.17;;;;;6.80;101170.00;;;;10475675;28;20196;-79
2022/03/03 19:14:18;;;;;;;27.80;16.93;;;;;6.60;101172.00;;;;10475326;28;20292;-80
2022/03/03 19:19:20;;;;;;;28.00;15.53;;;;;6.40;101169.00;;;;10491031;28;20232;-81
2022/03/03 19:24:22;;;;;;;22.63;14.63;;;;;6.30;101180.00;;;;10506695;28;20205;-80
2022/03/03 19:29:25;;;;;;;26.40;14.90;;;;;6.20;101178.00;;;;10490465;28;20228;-79
2022/03/03 19:34:27;;;;;;;21.47;13.80;;;;;6.10;101177.00;;;;10503319;28;20656;-79
2022/03/03 19:39:29;;;;;;;25.00;15.07;;;;;5.90;101183.00;;;;10552720;27;20207;-80
2022/03/03 19:44:35;;;;;;;27.40;17.40;;;;;5.80;101184.00;;;;10530393;28;20329;-80
2022/03/03 19:49:37;;;;;;;25.63;17.27;;;;;5.60;101185.00;;;;10489884;28;20204;-80
2022/03/03 19:54:39;;;;;;;30.60;18.27;;;;;5.30;101198.00;;;;10523353;28;20189;-79
2022/03/03 19:59:41;;;;;;;34.90;18.13;;;;;5.10;101184.00;;;;10491319;28;20221;-80
2022/03/03 20:04:43;;;;;;;28.10;18.60;;;;;4.90;101193.00;;;;10501670;28;20247;-80
2022/03/03 20:15:08;;;;;;;28.43;18.80;;;;;4.50;101201.00;;;;10484244;28;20251;-79
2022/03/03 20:20:10;;;;;;;28.40;18.27;;;;;4.40;101201.00;;;;10496951;28;20193;-79
2022/03/03 20:25:13;;;;;;;32.43;19.50;;;;;4.30;101204.00;;;;10504180;28;20204;-79
2022/03/03 20:30:21;;;;;;;31.20;18.20;;;;;4.10;101207.00;;;;10488755;28;20780;-79
2022/03/03 20:35:23;;;;;;;34.23;18.27;;;;;4.00;101207.00;;;;10492258;28;20198;-79
2022/03/03 20:40:25;;;;;;;28.33;18.17;;;;;3.80;101196.00;;;;10553516;27;20218;-80
2022/03/03 20:45:29;;;;;;;30.53;17.23;;;;;3.70;101212.00;;;;10516630;28;20206;-79
2022/03/03 20:50:31;;;;;;;34.33;19.90;;;;;3.70;101190.00;;;;10479811;28;20205;-80
2022/03/03 20:55:33;;;;;;;30.27;18.63;;;;;3.60;101199.00;;;;10513704;28;20219;-79
2022/03/03 21:00:35;;;;;;;30.27;19.33;;;;;3.40;101195.00;;;;10511091;28;20189;-79
2022/03/03 21:05:37;;;;;;;31.37;20.33;;;;;3.30;101197.00;;;;10532677;27;20220;-79
2022/03/03 21:10:40;;;;;;;28.20;19.33;;;;;3.20;101205.00;;;;10556271;27;20218;-80
2022/03/03 21:15:49;;;;;;;34.13;21.70;;;;;3.10;101198.00;;;;10513160;28;20208;-80
2022/03/03 21:20:55;;;;;;;34.33;20.93;;;;;3.10;101205.00;;;;10512533;28;20205;-80
2022/03/03 21:26:00;;;;;;;38.87;21.90;;;;;3.10;101201.00;;;;10530181;28;20193;-79
2022/03/03 21:31:02;;;;;;;37.47;21.80;;;;;3.00;101205.00;;;;10478589;28;20197;-79
2022/03/03 21:36:05;;;;;;;35.53;20.57;;;;;2.90;101204.00;;;;10472762;28;20221;-79
2022/03/03 21:41:07;;;;;;;40.20;21.60;;;;;2.80;101203.00;;;;10468304;28;20205;-80
2022/03/03 21:46:10;;;;;;;33.40;22.73;;;;;2.80;101205.00;;;;10488098;28;20247;-80
2022/03/03 21:51:12;;;;;;;35.50;22.23;;;;;2.80;101198.00;;;;10452675;28;20250;-79
2022/03/03 21:56:14;;;;;;;31.73;20.43;;;;;2.80;101196.00;;;;10494702;28;20221;-80
2022/03/03 22:01:16;;;;;;;35.17;20.50;;;;;2.80;101204.00;;;;10527823;28;20197;-80
2022/03/03 22:06:19;;;;;;;32.00;19.20;;;;;2.70;101205.00;;;;10522102;27;20227;-79
2022/03/03 22:11:21;;;;;;;31.07;20.17;;;;;2.60;101205.00;;;;10554771;28;20291;-79
2022/03/03 22:16:29;;;;;;;37.30;22.17;;;;;2.60;101205.00;;;;10538983;27;20205;-80
2022/03/03 22:21:33;;;;;;;38.03;21.60;;;;;2.50;101198.00;;;;10493707;28;20246;-80
2022/03/03 22:26:35;;;;;;;38.67;22.43;;;;;2.50;101197.00;;;;10511165;28;20720;-80
2022/03/03 22:31:37;;;;;;;39.30;22.10;;;;;2.40;101206.00;;;;10470487;28;20200;-79
2022/03/03 22:36:39;;;;;;;37.57;22.80;;;;;2.40;101201.00;;;;10482513;28;20220;-79
2022/03/03 22:41:41;;;;;;;37.30;20.70;;;;;2.30;101214.00;;;;10515422;28;20215;-79
2022/03/03 22:46:43;;;;;;;33.07;18.90;;;;;2.10;101204.00;;;;10500689;28;20193;-80
2022/03/03 22:57:05;;;;;;;37.90;20.63;;;;;2.30;101215.00;;;;10516717;28;20227;-80
2022/03/03 23:02:07;;;;;;;35.33;19.77;;;;;2.40;101219.00;;;;10516197;28;20181;-80
2022/03/03 23:07:16;;;;;;;31.67;18.87;;;;;2.20;101222.00;;;;10492786;28;20230;-79
2022/03/03 23:12:22;;;;;;;32.80;20.80;;;;;2.20;101226.00;;;;10498588;28;20664;-79
2022/03/03 23:17:24;;;;;;;29.73;18.87;;;;;2.20;101231.00;;;;10488450;28;20212;-80
2022/03/03 23:22:26;;;;;;;35.20;19.90;;;;;2.10;101226.00;;;;10514322;28;20208;-80
2022/03/03 23:27:28;;;;;;;30.23;20.27;;;;;1.80;101231.00;;;;10498270;28;20191;-80
2022/03/03 23:32:33;;;;;;;33.77;21.53;;;;;1.60;101240.00;;;;10482220;28;20242;-80
2022/03/03 23:37:35;;;;;;;34.53;20.60;;;;;1.50;101242.00;;;;10506414;28;20213;-80
2022/03/03 23:42:37;;;;;;;39.77;22.07;;;;;1.50;101255.00;;;;10456993;28;20193;-80
2022/03/03 23:47:39;;;;;;;34.87;21.70;;;;;1.50;101259.00;;;;10508298;28;20193;-80
2022/03/03 23:52:42;;;;;;;39.37;24.30;;;;;1.50;101273.00;;;;10532313;28;20197;-79
2022/03/03 23:57:44;;;;;;;37.67;23.67;;;;;1.50;101274.00;;;;10481074;28;20283;-80
